createdAt,value
2019-04-30T00:02:51.937Z,0
2019-04-30T00:03:06.482Z,0
2019-04-30T00:05:53.722Z,0
2019-04-30T00:08:51.932Z,0
2019-04-30T00:09:05.354Z,0
2019-04-30T00:10:06.016Z,0
2019-04-30T00:14:51.922Z,0
2019-04-30T00:15:03.762Z,0
2019-04-30T00:18:58.044Z,0
2019-04-30T00:19:55.637Z,0
2019-04-30T00:20:05.277Z,0
2019-04-30T00:21:05.415Z,0
2019-04-30T00:23:52.509Z,0
2019-04-30T00:24:52.673Z,0
2019-04-30T00:25:51.892Z,0
2019-04-30T00:26:05.854Z,0
2019-04-30T00:27:05.099Z,0
2019-04-30T00:28:05.104Z,0
2019-04-30T00:29:02.246Z,0
2019-04-30T00:33:01.936Z,0
2019-04-30T00:33:15.105Z,0
2019-04-30T00:35:16.049Z,0
2019-04-30T00:36:14.780Z,0
2019-04-30T00:37:18.523Z,0
2019-04-30T00:43:05.127Z,0
2019-04-30T00:43:15.438Z,0
2019-04-30T00:44:15.111Z,0
2019-04-30T00:48:01.810Z,0
2019-04-30T00:48:17.439Z,0
2019-04-30T00:49:16.579Z,0
2019-04-30T00:55:05.383Z,0
2019-04-30T00:55:15.001Z,0
2019-04-30T00:56:12.993Z,0
2019-04-30T00:57:14.750Z,0
2019-04-30T00:58:12.334Z,0
2019-04-30T01:01:12.842Z,0
2019-04-30T01:02:12.037Z,0
2019-04-30T01:02:28.611Z,0
2019-04-30T01:03:23.052Z,0
2019-04-30T01:04:24.371Z,0
2019-04-30T01:07:35.315Z,0
2019-04-30T01:08:33.748Z,0
2019-04-30T01:09:22.080Z,0
2019-04-30T01:09:35.387Z,0
2019-04-30T01:13:21.824Z,0
2019-04-30T01:13:33.658Z,0
2019-04-30T01:14:33.812Z,0
2019-04-30T01:15:33.007Z,0
2019-04-30T01:16:33.286Z,0
2019-04-30T01:17:32.426Z,0
2019-04-30T01:18:32.574Z,0
2019-04-30T01:19:33.027Z,0
2019-04-30T01:20:33.064Z,0
2019-04-30T01:21:32.097Z,0
2019-04-30T01:22:43.153Z,0
2019-04-30T01:23:48.908Z,0
2019-04-30T01:24:53.359Z,0
2019-04-30T01:25:52.549Z,0
2019-04-30T01:26:52.742Z,0
2019-04-30T01:27:52.930Z,0
2019-04-30T01:28:53.652Z,0
2019-04-30T01:29:03.922Z,0
2019-04-30T01:30:03.098Z,0
2019-04-30T01:31:03.315Z,0
2019-04-30T01:32:02.524Z,0
2019-04-30T01:33:02.721Z,0
2019-04-30T01:34:05.016Z,0
2019-04-30T01:34:14.171Z,0
2019-04-30T01:35:12.891Z,0
2019-04-30T01:36:13.391Z,0
2019-04-30T01:37:12.279Z,0
2019-04-30T01:38:23.289Z,0
2019-04-30T01:39:23.628Z,0
2019-04-30T01:40:22.637Z,0
2019-04-30T01:41:27.284Z,0
2019-04-30T01:41:33.646Z,0
2019-04-30T01:42:32.850Z,0
2019-04-30T01:43:34.563Z,0
2019-04-30T01:44:32.204Z,0
2019-04-30T01:45:43.249Z,0
2019-04-30T01:46:43.168Z,0
2019-04-30T01:47:53.497Z,0
2019-04-30T01:48:52.677Z,0
2019-04-30T01:49:55.772Z,0
2019-04-30T01:50:52.014Z,0
2019-04-30T01:51:03.853Z,0
2019-04-30T01:53:04.692Z,0
2019-04-30T01:54:02.415Z,0
2019-04-30T01:55:13.464Z,0
2019-04-30T01:56:12.656Z,0
2019-04-30T01:57:11.844Z,0
2019-04-30T01:57:23.713Z,0
2019-04-30T01:58:22.898Z,0
2019-04-30T01:59:22.100Z,0
2019-04-30T02:00:33.141Z,0
2019-04-30T02:01:32.345Z,0
2019-04-30T02:02:43.397Z,0
2019-04-30T02:03:42.585Z,0
2019-04-30T02:04:53.611Z,0
2019-04-30T02:05:52.809Z,0
2019-04-30T02:06:51.990Z,0
2019-04-30T02:07:03.836Z,0
2019-04-30T02:08:03.002Z,0
2019-04-30T02:09:02.234Z,0
2019-04-30T02:11:13.448Z,0
2019-04-30T02:12:12.640Z,0
2019-04-30T02:13:11.880Z,0
2019-04-30T02:13:23.722Z,0
2019-04-30T02:14:22.904Z,0
2019-04-30T02:15:22.091Z,0
2019-04-30T02:16:33.145Z,0
2019-04-30T02:17:32.344Z,0
2019-04-30T02:18:43.430Z,0
2019-04-30T02:19:53.608Z,0
2019-04-30T02:20:41.838Z,0
2019-04-30T02:20:53.683Z,0
2019-04-30T02:21:52.865Z,0
2019-04-30T02:22:52.075Z,0
2019-04-30T02:23:03.907Z,0
2019-04-30T02:24:03.101Z,0
2019-04-30T02:25:02.322Z,0
2019-04-30T02:26:02.476Z,0
2019-04-30T02:27:13.515Z,0
2019-04-30T02:28:12.680Z,0
2019-04-30T02:29:11.928Z,0
2019-04-30T02:29:23.767Z,0
2019-04-30T02:30:22.975Z,0
2019-04-30T02:31:22.787Z,0
2019-04-30T02:32:33.206Z,0
2019-04-30T02:33:32.401Z,0
2019-04-30T02:34:44.291Z,0
2019-04-30T02:35:42.632Z,0
2019-04-30T02:36:41.838Z,0
2019-04-30T02:36:53.671Z,0
2019-04-30T02:37:52.844Z,0
2019-04-30T02:38:53.015Z,0
2019-04-30T02:39:52.191Z,0
2019-04-30T02:41:03.255Z,0
2019-04-30T02:42:02.441Z,0
2019-04-30T02:43:13.457Z,0
2019-04-30T02:44:12.620Z,0
2019-04-30T02:45:12.793Z,0
2019-04-30T02:46:12.052Z,0
2019-04-30T02:46:23.885Z,0
2019-04-30T02:47:23.082Z,0
2019-04-30T02:48:22.258Z,0
2019-04-30T02:49:33.283Z,0
2019-04-30T02:50:32.449Z,0
2019-04-30T02:51:32.658Z,0
2019-04-30T02:52:31.862Z,0
2019-04-30T02:52:43.690Z,0
2019-04-30T02:53:42.869Z,0
2019-04-30T02:54:42.111Z,0
2019-04-30T02:55:53.157Z,0
2019-04-30T02:56:52.345Z,0
2019-04-30T02:58:03.380Z,0
2019-04-30T02:59:03.670Z,0
2019-04-30T03:00:13.610Z,0
2019-04-30T03:01:12.784Z,0
2019-04-30T03:02:11.987Z,0
2019-04-30T03:02:23.821Z,0
2019-04-30T03:03:25.123Z,0
2019-04-30T03:04:22.294Z,0
2019-04-30T03:05:33.313Z,0
2019-04-30T03:06:33.475Z,0
2019-04-30T03:07:32.651Z,0
2019-04-30T03:08:31.821Z,0
2019-04-30T03:08:43.662Z,0
2019-04-30T03:09:42.877Z,0
2019-04-30T03:10:42.073Z,0
2019-04-30T03:10:53.898Z,0
2019-04-30T03:11:53.071Z,0
2019-04-30T03:12:52.248Z,0
2019-04-30T03:14:03.344Z,0
2019-04-30T03:15:02.523Z,0
2019-04-30T03:16:13.523Z,0
2019-04-30T03:17:12.698Z,0
2019-04-30T03:18:11.906Z,0
2019-04-30T03:18:23.748Z,0
2019-04-30T03:19:22.984Z,0
2019-04-30T03:20:32.429Z,0
2019-04-30T03:21:22.322Z,0
2019-04-30T03:22:33.344Z,0
2019-04-30T03:23:32.535Z,0
2019-04-30T03:24:43.649Z,0
2019-04-30T03:25:42.949Z,0
2019-04-30T03:26:42.135Z,0
2019-04-30T03:27:53.225Z,0
2019-04-30T03:28:52.563Z,0
2019-04-30T03:30:03.583Z,0
2019-04-30T03:31:04.792Z,0
2019-04-30T03:32:03.642Z,0
2019-04-30T03:33:03.322Z,0
2019-04-30T03:34:02.506Z,0
2019-04-30T03:35:13.571Z,0
2019-04-30T03:36:13.122Z,0
2019-04-30T03:37:11.983Z,0
2019-04-30T03:37:23.818Z,0
2019-04-30T03:38:23.045Z,0
2019-04-30T03:39:22.252Z,0
2019-04-30T03:40:22.589Z,0
2019-04-30T03:41:33.628Z,0
2019-04-30T03:42:32.818Z,0
2019-04-30T03:43:32.026Z,0
2019-04-30T03:43:43.863Z,0
2019-04-30T03:44:43.083Z,0
2019-04-30T03:45:42.308Z,0
2019-04-30T03:46:53.370Z,0
2019-04-30T03:47:52.558Z,0
2019-04-30T03:49:03.623Z,0
2019-04-30T03:50:02.884Z,0
2019-04-30T03:51:03.159Z,0
2019-04-30T03:52:02.401Z,0
2019-04-30T03:53:13.468Z,0
2019-04-30T03:54:12.729Z,0
2019-04-30T03:55:11.981Z,0
2019-04-30T03:55:24.900Z,0
2019-04-30T03:56:23.038Z,0
2019-04-30T03:57:22.269Z,0
2019-04-30T03:58:33.317Z,0
2019-04-30T03:59:32.510Z,0
2019-04-30T04:00:46.504Z,0
2019-04-30T04:01:42.928Z,0
2019-04-30T04:02:42.166Z,0
2019-04-30T04:03:53.235Z,0
2019-04-30T04:04:52.834Z,0
2019-04-30T04:06:03.657Z,0
2019-04-30T04:07:02.884Z,0
2019-04-30T04:08:02.076Z,0
2019-04-30T04:08:13.916Z,0
2019-04-30T04:09:13.096Z,0
2019-04-30T04:10:12.300Z,0
2019-04-30T04:11:23.328Z,0
2019-04-30T04:12:22.619Z,0
2019-04-30T04:13:21.880Z,0
2019-04-30T04:13:33.715Z,0
2019-04-30T04:14:32.981Z,0
2019-04-30T04:15:32.147Z,0
2019-04-30T04:16:43.233Z,0
2019-04-30T04:17:42.506Z,0
2019-04-30T04:18:53.558Z,0
2019-04-30T04:19:52.783Z,0
2019-04-30T04:21:06.611Z,0
2019-04-30T04:21:11.242Z,0
2019-04-30T04:22:04.170Z,0
2019-04-30T04:23:02.182Z,0
2019-04-30T04:24:13.239Z,0
2019-04-30T04:25:13.108Z,0
2019-04-30T04:26:23.450Z,0
2019-04-30T04:27:22.691Z,0
2019-04-30T04:28:21.870Z,0
2019-04-30T04:28:33.710Z,0
2019-04-30T04:29:32.899Z,0
2019-04-30T04:30:32.089Z,0
2019-04-30T04:30:43.925Z,0
2019-04-30T04:31:43.119Z,0
2019-04-30T04:32:42.345Z,0
2019-04-30T04:33:53.362Z,0
2019-04-30T04:34:53.545Z,0
2019-04-30T04:35:52.879Z,0
2019-04-30T04:36:53.050Z,0
2019-04-30T04:37:52.227Z,0
2019-04-30T04:39:03.259Z,0
2019-04-30T04:40:02.450Z,0
2019-04-30T04:41:13.510Z,0
2019-04-30T04:42:12.685Z,0
2019-04-30T04:43:11.898Z,5.625
2019-04-30T04:43:23.739Z,5.625
2019-04-30T04:44:12.988Z,5.625
2019-04-30T04:45:23.147Z,5.625
2019-04-30T04:46:22.332Z,5.625
2019-04-30T04:47:33.382Z,5.625
2019-04-30T04:48:32.606Z,5.625
2019-04-30T04:49:31.816Z,5.625
2019-04-30T04:49:43.655Z,5.625
2019-04-30T04:50:42.856Z,5.625
2019-04-30T04:51:43.032Z,5.625
2019-04-30T04:52:42.323Z,5.625
2019-04-30T04:53:42.508Z,5.625
2019-04-30T04:54:53.512Z,5.625
2019-04-30T04:55:52.711Z,5.625
2019-04-30T04:56:53.390Z,5.625
2019-04-30T04:57:14.682Z,5.625
2019-04-30T04:58:02.925Z,5.625
2019-04-30T04:59:02.097Z,5.625
2019-04-30T04:59:13.929Z,5.625
2019-04-30T05:00:07.068Z,5.625
2019-04-30T05:01:13.146Z,5.625
2019-04-30T05:02:12.337Z,5.625
2019-04-30T05:03:23.419Z,11.25
2019-04-30T05:04:23.601Z,11.25
2019-04-30T05:05:22.806Z,11.25
2019-04-30T05:06:22.408Z,11.25
2019-04-30T05:06:33.817Z,11.25
2019-04-30T05:07:33.014Z,11.25
2019-04-30T05:08:32.269Z,11.25
2019-04-30T05:09:43.319Z,11.25
2019-04-30T05:10:42.506Z,11.25
2019-04-30T05:11:53.543Z,11.25
2019-04-30T05:12:52.757Z,11.25
2019-04-30T05:13:52.284Z,11.25
2019-04-30T05:15:03.301Z,11.25
2019-04-30T05:16:02.547Z,11.25
2019-04-30T05:17:13.567Z,11.25
2019-04-30T05:18:12.772Z,11.25
2019-04-30T05:19:11.984Z,11.25
2019-04-30T05:19:23.827Z,11.25
2019-04-30T05:20:23.038Z,11.25
2019-04-30T05:21:22.286Z,11.25
2019-04-30T05:22:33.293Z,11.25
2019-04-30T05:23:32.487Z,11.25
2019-04-30T05:24:43.579Z,16.875
2019-04-30T05:25:42.939Z,16.875
2019-04-30T05:26:42.151Z,16.875
2019-04-30T05:27:53.266Z,16.875
2019-04-30T05:28:52.930Z,16.875
2019-04-30T05:30:03.533Z,16.875
2019-04-30T05:30:51.945Z,16.875
2019-04-30T05:31:03.784Z,16.875
2019-04-30T05:32:03.024Z,16.875
2019-04-30T05:33:02.230Z,16.875
2019-04-30T05:35:13.573Z,16.875
2019-04-30T05:36:12.837Z,16.875
2019-04-30T05:37:12.028Z,16.875
2019-04-30T05:37:23.865Z,16.875
2019-04-30T05:38:23.063Z,16.875
2019-04-30T05:39:22.268Z,16.875
2019-04-30T05:40:33.395Z,16.875
2019-04-30T05:42:33.318Z,16.875
2019-04-30T05:43:32.612Z,16.875
2019-04-30T05:44:32.912Z,16.875
2019-04-30T05:45:33.695Z,16.875
2019-04-30T05:46:43.460Z,22.5
2019-04-30T05:47:42.793Z,22.5
2019-04-30T05:48:42.262Z,22.5
2019-04-30T05:49:53.514Z,22.5
2019-04-30T05:50:52.843Z,22.5
2019-04-30T05:51:55.778Z,22.5
2019-04-30T05:52:52.274Z,22.5
2019-04-30T05:54:03.309Z,22.5
2019-04-30T05:55:02.466Z,22.5
2019-04-30T05:56:13.559Z,22.5
2019-04-30T05:57:12.741Z,22.5
2019-04-30T05:58:11.939Z,22.5
2019-04-30T05:58:23.782Z,22.5
2019-04-30T05:59:12.150Z,22.5
2019-04-30T06:00:23.271Z,22.5
2019-04-30T06:01:24.238Z,22.5
2019-04-30T06:02:33.960Z,28.125
2019-04-30T06:03:33.698Z,28.125
2019-04-30T06:04:32.905Z,28.125
2019-04-30T06:05:32.243Z,28.125
2019-04-30T06:06:43.307Z,28.125
2019-04-30T06:07:42.492Z,28.125
2019-04-30T06:09:03.959Z,28.125
2019-04-30T06:09:52.697Z,28.125
2019-04-30T06:10:52.028Z,33.75
2019-04-30T06:11:03.875Z,33.75
2019-04-30T06:12:03.056Z,33.75
2019-04-30T06:13:02.266Z,33.75
2019-04-30T06:14:13.290Z,33.75
2019-04-30T06:15:12.489Z,33.75
2019-04-30T06:16:23.608Z,33.75
2019-04-30T06:17:22.796Z,33.75
2019-04-30T06:18:22.963Z,39.375
2019-04-30T06:19:22.159Z,39.375
2019-04-30T06:20:33.178Z,39.375
2019-04-30T06:21:32.437Z,39.375
2019-04-30T06:22:43.477Z,39.375
2019-04-30T06:23:42.668Z,39.375
2019-04-30T06:24:41.870Z,33.75
2019-04-30T06:24:53.718Z,33.75
2019-04-30T06:26:53.192Z,39.375
2019-04-30T06:27:52.378Z,39.375
2019-04-30T06:29:03.403Z,39.375
2019-04-30T06:30:02.633Z,39.375
2019-04-30T06:31:01.866Z,39.375
2019-04-30T06:31:13.703Z,39.375
2019-04-30T06:32:12.899Z,33.75
2019-04-30T06:33:12.082Z,33.75
2019-04-30T06:33:23.914Z,33.75
2019-04-30T06:34:23.118Z,33.75
2019-04-30T06:35:22.302Z,33.75
2019-04-30T06:36:33.413Z,33.75
2019-04-30T06:37:32.595Z,39.375
2019-04-30T06:38:43.617Z,39.375
2019-04-30T06:39:42.816Z,45
2019-04-30T06:40:41.995Z,45
2019-04-30T06:40:53.831Z,45
2019-04-30T06:42:04.119Z,45
2019-04-30T06:42:52.228Z,50.625
2019-04-30T06:44:03.262Z,45
2019-04-30T06:45:02.452Z,45
2019-04-30T06:46:13.499Z,39.375
2019-04-30T06:47:12.700Z,39.375
2019-04-30T06:48:11.992Z,39.375
2019-04-30T06:48:23.828Z,39.375
2019-04-30T06:49:23.001Z,39.375
2019-04-30T06:50:22.233Z,39.375
2019-04-30T06:51:33.249Z,39.375
2019-04-30T06:52:33.426Z,45
2019-04-30T06:53:32.630Z,45
2019-04-30T06:54:31.821Z,45
2019-04-30T06:54:43.658Z,45
2019-04-30T06:55:42.839Z,45
2019-04-30T06:56:42.095Z,45
2019-04-30T06:57:53.122Z,45
2019-04-30T06:58:52.625Z,50.625
2019-04-30T07:00:03.381Z,45
2019-04-30T07:01:02.583Z,45
2019-04-30T07:02:01.870Z,50.625
2019-04-30T07:02:13.774Z,50.625
2019-04-30T07:03:12.977Z,50.625
2019-04-30T07:04:12.152Z,50.625
2019-04-30T07:05:23.176Z,50.625
2019-04-30T07:06:29.528Z,50.625
2019-04-30T07:07:23.140Z,50.625
2019-04-30T07:09:21.883Z,56.25
2019-04-30T07:09:43.703Z,56.25
2019-04-30T07:10:32.849Z,56.25
2019-04-30T07:11:32.024Z,56.25
2019-04-30T07:11:43.879Z,56.25
2019-04-30T07:12:43.054Z,56.25
2019-04-30T07:13:42.276Z,56.25
2019-04-30T07:14:53.312Z,56.25
2019-04-30T07:15:52.508Z,61.875
2019-04-30T07:16:52.690Z,61.875
2019-04-30T07:17:51.877Z,67.5
2019-04-30T07:18:03.718Z,67.5
2019-04-30T07:19:02.926Z,67.5
2019-04-30T07:21:03.265Z,67.5
2019-04-30T07:22:02.440Z,67.5
2019-04-30T07:23:03.377Z,67.5
2019-04-30T07:24:01.811Z,61.875
2019-04-30T07:25:01.851Z,61.875
2019-04-30T07:25:13.687Z,61.875
2019-04-30T07:26:13.710Z,56.25
2019-04-30T07:27:12.059Z,61.875
2019-04-30T07:27:24.352Z,61.875
2019-04-30T07:28:40.059Z,67.5
2019-04-30T07:29:22.379Z,67.5
2019-04-30T07:30:33.458Z,67.5
2019-04-30T07:31:32.592Z,67.5
2019-04-30T07:32:43.615Z,67.5
2019-04-30T07:33:42.815Z,73.125
2019-04-30T07:34:43.050Z,73.125
2019-04-30T07:35:42.232Z,78.75
2019-04-30T07:37:54.456Z,78.75
2019-04-30T07:38:56.318Z,84.375
2019-04-30T07:39:52.766Z,78.75
2019-04-30T07:40:51.969Z,84.375
2019-04-30T07:41:03.810Z,84.375
2019-04-30T07:42:03.001Z,84.375
2019-04-30T07:43:02.186Z,84.375
2019-04-30T07:44:29.956Z,78.75
2019-04-30T07:45:12.475Z,73.125
2019-04-30T07:46:12.661Z,73.125
2019-04-30T07:47:11.838Z,73.125
2019-04-30T07:47:23.676Z,73.125
2019-04-30T07:48:26.347Z,73.125
2019-04-30T07:49:22.100Z,78.75
2019-04-30T07:50:33.561Z,84.375
2019-04-30T07:51:37.601Z,90
2019-04-30T07:52:34.039Z,95.625
2019-04-30T07:53:43.464Z,95.625
2019-04-30T07:54:42.713Z,95.625
2019-04-30T07:55:41.889Z,95.625
2019-04-30T07:55:53.734Z,95.625
2019-04-30T07:56:52.908Z,95.625
2019-04-30T07:57:52.097Z,90
2019-04-30T07:59:03.191Z,90
2019-04-30T08:00:02.409Z,90
2019-04-30T08:01:02.597Z,95.625
2019-04-30T08:02:09.901Z,95.625
2019-04-30T08:03:01.930Z,95.625
2019-04-30T08:03:14.039Z,95.625
2019-04-30T08:04:12.948Z,95.625
2019-04-30T08:05:12.157Z,95.625
2019-04-30T08:06:23.244Z,95.625
2019-04-30T08:07:22.486Z,95.625
2019-04-30T08:08:25.602Z,95.625
2019-04-30T08:09:39.618Z,101.25
2019-04-30T08:10:32.818Z,95.625
2019-04-30T08:11:34.258Z,95.625
2019-04-30T08:12:36.146Z,90
2019-04-30T08:13:33.152Z,90
2019-04-30T08:14:43.334Z,84.375
2019-04-30T08:15:42.544Z,84.375
2019-04-30T08:16:41.833Z,90
2019-04-30T08:16:53.672Z,90
2019-04-30T08:18:02.545Z,101.25
2019-04-30T08:18:52.040Z,90
2019-04-30T08:19:03.874Z,90
2019-04-30T08:20:03.050Z,90
2019-04-30T08:21:02.259Z,95.625
2019-04-30T08:22:13.301Z,84.375
2019-04-30T08:23:24.874Z,78.75
2019-04-30T08:24:01.835Z,84.375
2019-04-30T08:24:13.687Z,84.375
2019-04-30T08:25:12.861Z,84.375
2019-04-30T08:26:12.047Z,90
2019-04-30T08:26:23.898Z,90
2019-04-30T08:27:23.122Z,90
2019-04-30T08:28:22.317Z,90
2019-04-30T08:29:33.339Z,101.25
2019-04-30T08:30:33.510Z,106.875
2019-04-30T08:31:32.747Z,95.625
2019-04-30T08:32:31.928Z,112.5
2019-04-30T08:32:43.764Z,112.5
2019-04-30T08:33:32.240Z,112.5
2019-04-30T08:34:43.283Z,106.875
2019-04-30T08:35:42.478Z,95.625
2019-04-30T08:36:42.678Z,95.625
2019-04-30T08:37:41.831Z,95.625
2019-04-30T08:37:53.700Z,95.625
2019-04-30T08:38:53.062Z,90
2019-04-30T08:39:52.277Z,95.625
2019-04-30T08:42:03.489Z,73.125
2019-04-30T08:43:02.671Z,73.125
2019-04-30T08:44:01.894Z,73.125
2019-04-30T08:45:02.074Z,90
2019-04-30T08:45:13.907Z,90
2019-04-30T08:46:13.066Z,84.375
2019-04-30T08:47:12.260Z,73.125
2019-04-30T08:48:23.308Z,78.75
2019-04-30T08:49:22.768Z,78.75
2019-04-30T08:50:33.592Z,67.5
2019-04-30T08:51:32.785Z,61.875
2019-04-30T08:52:31.977Z,78.75
2019-04-30T08:52:43.952Z,67.5
2019-04-30T08:53:43.024Z,84.375
2019-04-30T08:54:43.228Z,78.75
2019-04-30T08:55:42.408Z,61.875
2019-04-30T08:56:53.414Z,67.5
2019-04-30T08:57:52.590Z,67.5
2019-04-30T08:58:51.807Z,78.75
2019-04-30T08:59:03.643Z,67.5
2019-04-30T08:59:52.021Z,61.875
2019-04-30T09:00:03.863Z,61.875
2019-04-30T09:01:03.042Z,61.875
2019-04-30T09:02:12.709Z,73.125
2019-04-30T09:03:02.401Z,78.75
2019-04-30T09:05:13.253Z,78.75
2019-04-30T09:06:12.435Z,84.375
2019-04-30T09:07:23.464Z,78.75
2019-04-30T09:08:22.667Z,84.375
2019-04-30T09:09:21.874Z,84.375
2019-04-30T09:09:33.721Z,84.375
2019-04-30T09:10:32.957Z,78.75
2019-04-30T09:11:42.989Z,84.375
2019-04-30T09:12:32.316Z,84.375
2019-04-30T09:13:43.378Z,84.375
2019-04-30T09:14:42.623Z,78.75
2019-04-30T09:15:41.807Z,84.375
2019-04-30T09:15:53.644Z,84.375
2019-04-30T09:16:52.877Z,84.375
2019-04-30T09:18:00.487Z,84.375
2019-04-30T09:18:07.116Z,84.375
2019-04-30T09:19:03.050Z,84.375
2019-04-30T09:20:02.235Z,84.375
2019-04-30T09:23:01.854Z,90
2019-04-30T09:23:13.687Z,95.625
2019-04-30T09:24:12.861Z,95.625
2019-04-30T09:25:12.042Z,95.625
2019-04-30T09:25:23.900Z,95.625
2019-04-30T09:26:23.103Z,101.25
2019-04-30T09:27:22.310Z,101.25
2019-04-30T09:28:33.337Z,106.875
2019-04-30T09:29:32.536Z,101.25
2019-04-30T09:30:43.557Z,101.25
2019-04-30T09:31:42.769Z,101.25
2019-04-30T09:32:42.018Z,95.625
2019-04-30T09:32:53.845Z,95.625
2019-04-30T09:33:53.058Z,73.125
2019-04-30T09:34:52.238Z,95.625
2019-04-30T09:36:03.272Z,95.625
2019-04-30T09:37:02.469Z,95.625
2019-04-30T09:38:02.708Z,101.25
2019-04-30T09:39:01.922Z,101.25
2019-04-30T09:39:13.757Z,101.25
2019-04-30T09:41:13.128Z,101.25
2019-04-30T09:42:12.316Z,101.25
2019-04-30T09:43:23.533Z,95.625
2019-04-30T09:44:22.724Z,67.5
2019-04-30T09:45:21.909Z,61.875
2019-04-30T09:45:33.744Z,61.875
2019-04-30T09:47:33.119Z,67.5
2019-04-30T09:48:32.344Z,84.375
2019-04-30T09:49:43.374Z,84.375
2019-04-30T09:50:42.718Z,78.75
2019-04-30T09:51:53.688Z,84.375
2019-04-30T09:52:52.815Z,84.375
2019-04-30T09:53:58.413Z,84.375
2019-04-30T09:54:04.488Z,84.375
2019-04-30T09:55:03.271Z,84.375
2019-04-30T09:56:02.229Z,78.75
2019-04-30T09:57:13.244Z,90
2019-04-30T09:58:16.813Z,90
2019-04-30T09:59:12.638Z,90
2019-04-30T10:00:11.875Z,90
2019-04-30T10:00:23.715Z,90
2019-04-30T10:01:22.889Z,90
2019-04-30T10:02:22.080Z,90
2019-04-30T10:04:33.435Z,90
2019-04-30T10:05:32.572Z,90
2019-04-30T10:07:31.924Z,90
2019-04-30T10:07:43.763Z,78.75
2019-04-30T10:09:43.188Z,84.375
2019-04-30T10:10:42.424Z,90
2019-04-30T10:11:53.430Z,90
2019-04-30T10:12:52.624Z,90
2019-04-30T10:14:03.634Z,90
2019-04-30T10:15:02.800Z,90
2019-04-30T10:16:02.030Z,90
2019-04-30T10:16:13.894Z,90
2019-04-30T10:17:13.211Z,90
2019-04-30T10:18:12.388Z,90
2019-04-30T10:20:23.608Z,95.625
2019-04-30T10:21:22.820Z,95.625
2019-04-30T10:22:22.003Z,95.625
2019-04-30T10:22:33.849Z,95.625
2019-04-30T10:23:33.030Z,95.625
2019-04-30T10:24:32.206Z,95.625
2019-04-30T10:25:43.228Z,95.625
2019-04-30T10:26:42.483Z,101.25
2019-04-30T10:27:53.517Z,101.25
2019-04-30T10:28:52.698Z,106.875
2019-04-30T10:29:51.870Z,78.75
2019-04-30T10:30:03.711Z,84.375
2019-04-30T10:31:02.907Z,90
2019-04-30T10:32:03.126Z,84.375
2019-04-30T10:33:02.326Z,90
2019-04-30T10:34:13.338Z,90
2019-04-30T10:35:12.531Z,90
2019-04-30T10:36:23.596Z,95.625
2019-04-30T10:37:22.787Z,95.625
2019-04-30T10:38:21.983Z,101.25
2019-04-30T10:38:33.820Z,101.25
2019-04-30T10:39:33.013Z,101.25
2019-04-30T10:40:32.227Z,106.875
2019-04-30T10:41:43.245Z,112.5
2019-04-30T10:42:43.405Z,95.625
2019-04-30T10:43:42.582Z,84.375
2019-04-30T10:44:53.598Z,78.75
2019-04-30T10:45:52.780Z,95.625
2019-04-30T10:46:52.030Z,112.5
2019-04-30T10:47:03.871Z,112.5
2019-04-30T10:48:03.055Z,112.5
2019-04-30T10:49:02.238Z,112.5
2019-04-30T10:50:13.250Z,95.625
2019-04-30T10:51:12.463Z,95.625
2019-04-30T10:52:23.510Z,101.25
2019-04-30T10:53:22.684Z,95.625
2019-04-30T10:54:26.207Z,95.625
2019-04-30T10:55:22.585Z,95.625
2019-04-30T10:56:22.787Z,95.625
2019-04-30T10:57:21.980Z,101.25
2019-04-30T10:57:33.821Z,101.25
2019-04-30T10:58:32.987Z,101.25
2019-04-30T10:59:32.171Z,101.25
2019-04-30T11:00:32.350Z,101.25
2019-04-30T11:01:43.430Z,101.25
2019-04-30T11:02:42.616Z,101.25
2019-04-30T11:03:42.933Z,106.875
2019-04-30T11:03:53.635Z,106.875
2019-04-30T11:04:52.817Z,106.875
2019-04-30T11:05:52.012Z,106.875
2019-04-30T11:06:03.868Z,106.875
2019-04-30T11:07:03.087Z,106.875
2019-04-30T11:08:02.264Z,112.5
2019-04-30T11:09:13.288Z,106.875
2019-04-30T11:10:12.493Z,106.875
2019-04-30T11:11:23.562Z,101.25
2019-04-30T11:12:22.759Z,106.875
2019-04-30T11:13:21.985Z,106.875
2019-04-30T11:13:33.826Z,106.875
2019-04-30T11:14:33.051Z,106.875
2019-04-30T11:15:32.260Z,106.875
2019-04-30T11:16:43.488Z,112.5
2019-04-30T11:17:42.742Z,112.5
2019-04-30T11:18:53.712Z,112.5
2019-04-30T11:19:42.089Z,112.5
2019-04-30T11:19:53.869Z,112.5
2019-04-30T11:20:53.016Z,106.875
2019-04-30T11:21:52.261Z,106.875
2019-04-30T11:24:03.409Z,106.875
2019-04-30T11:25:03.877Z,112.5
2019-04-30T11:26:03.320Z,106.875
2019-04-30T11:27:02.536Z,112.5
2019-04-30T11:27:14.465Z,112.5
2019-04-30T11:28:13.582Z,112.5
2019-04-30T11:29:12.432Z,112.5
2019-04-30T11:31:23.668Z,112.5
2019-04-30T11:32:22.866Z,106.875
2019-04-30T11:33:22.045Z,112.5
2019-04-30T11:33:33.990Z,112.5
2019-04-30T11:34:32.901Z,112.5
2019-04-30T11:35:32.163Z,112.5
2019-04-30T11:36:43.167Z,118.125
2019-04-30T11:37:43.352Z,118.125
2019-04-30T11:38:42.548Z,112.5
2019-04-30T11:39:53.645Z,118.125
2019-04-30T11:40:52.829Z,118.125
2019-04-30T11:41:52.013Z,106.875
2019-04-30T11:42:03.848Z,106.875
2019-04-30T11:43:03.020Z,106.875
2019-04-30T11:44:02.203Z,106.875
2019-04-30T11:45:13.276Z,106.875
2019-04-30T11:46:12.471Z,112.5
2019-04-30T11:47:23.518Z,112.5
2019-04-30T11:48:11.842Z,106.875
2019-04-30T11:48:23.683Z,106.875
2019-04-30T11:49:22.884Z,112.5
2019-04-30T11:50:22.127Z,112.5
2019-04-30T11:51:33.177Z,112.5
2019-04-30T11:52:32.374Z,112.5
2019-04-30T11:53:32.538Z,112.5
2019-04-30T11:54:49.693Z,118.125
2019-04-30T11:55:42.830Z,118.125
2019-04-30T11:56:42.005Z,123.75
2019-04-30T11:56:53.842Z,123.75
2019-04-30T11:57:53.033Z,123.75
2019-04-30T11:58:52.224Z,129.375
2019-04-30T12:00:03.249Z,129.375
2019-04-30T12:01:02.469Z,129.375
2019-04-30T12:02:13.496Z,129.375
2019-04-30T12:03:12.679Z,135
2019-04-30T12:04:11.853Z,135
2019-04-30T12:04:23.691Z,135
2019-04-30T12:05:22.898Z,135
2019-04-30T12:06:22.114Z,135
2019-04-30T12:07:33.177Z,135
2019-04-30T12:08:32.361Z,135
2019-04-30T12:09:43.406Z,135
2019-04-30T12:10:42.585Z,135
2019-04-30T12:11:53.745Z,135
2019-04-30T12:12:52.942Z,135
2019-04-30T12:13:52.120Z,135
2019-04-30T12:15:03.132Z,140.625
2019-04-30T12:16:02.305Z,140.625
2019-04-30T12:17:13.400Z,140.625
2019-04-30T12:18:12.588Z,140.625
2019-04-30T12:19:23.619Z,140.625
2019-04-30T12:20:22.807Z,140.625
2019-04-30T12:21:21.984Z,140.625
2019-04-30T12:21:33.827Z,140.625
2019-04-30T12:22:33.045Z,140.625
2019-04-30T12:23:32.286Z,140.625
2019-04-30T12:24:43.322Z,140.625
2019-04-30T12:25:42.497Z,140.625
2019-04-30T12:26:53.502Z,140.625
2019-04-30T12:27:52.730Z,140.625
2019-04-30T12:28:52.081Z,146.25
2019-04-30T12:29:03.916Z,146.25
2019-04-30T12:30:03.096Z,146.25
2019-04-30T12:31:02.277Z,146.25
2019-04-30T12:32:13.302Z,151.875
2019-04-30T12:33:12.476Z,151.875
2019-04-30T12:34:23.547Z,151.875
2019-04-30T12:35:22.728Z,151.875
2019-04-30T12:36:21.961Z,157.5
2019-04-30T12:36:33.802Z,157.5
2019-04-30T12:37:32.993Z,157.5
2019-04-30T12:38:32.214Z,157.5
2019-04-30T12:39:43.237Z,163.125
2019-04-30T12:40:42.414Z,163.125
2019-04-30T12:41:53.440Z,163.125
2019-04-30T12:42:52.618Z,157.5
2019-04-30T12:43:51.857Z,163.125
2019-04-30T12:44:03.692Z,157.5
2019-04-30T12:45:02.900Z,151.875
2019-04-30T12:46:05.347Z,163.125
2019-04-30T12:47:02.250Z,163.125
2019-04-30T12:48:13.281Z,157.5
2019-04-30T12:49:12.477Z,163.125
2019-04-30T12:50:23.498Z,163.125
2019-04-30T12:51:22.709Z,168.75
2019-04-30T12:52:21.873Z,174.375
2019-04-30T12:52:33.736Z,174.375
2019-04-30T12:53:32.934Z,174.375
2019-04-30T12:54:32.129Z,174.375
2019-04-30T12:55:43.199Z,180
2019-04-30T12:56:42.380Z,180
2019-04-30T12:58:41.896Z,185.625
2019-04-30T12:58:53.737Z,185.625
2019-04-30T12:59:52.935Z,185.625
2019-04-30T13:00:52.130Z,180
2019-04-30T13:02:03.150Z,185.625
2019-04-30T13:03:02.367Z,185.625
2019-04-30T13:04:02.533Z,196.875
2019-04-30T13:05:13.590Z,174.375
2019-04-30T13:06:13.272Z,185.625
2019-04-30T13:07:13.730Z,196.875
2019-04-30T13:08:12.542Z,185.625
2019-04-30T13:10:13.098Z,196.875
2019-04-30T13:11:12.870Z,191.25
2019-04-30T13:11:24.164Z,191.25
2019-04-30T13:12:23.384Z,191.25
2019-04-30T13:13:22.569Z,191.25
2019-04-30T13:13:34.159Z,191.25
2019-04-30T13:14:22.606Z,191.25
2019-04-30T13:15:21.895Z,185.625
2019-04-30T13:15:33.845Z,191.25